Angleton, Texas
Current Conditions -  °F | °C
As of 5:53 PM on Monday 24 Nov 2014 (Local Time) from KLBX Reporting Station
Overcast Overcast  
Wind Chill: 58°   Ceiling: 12000
Heat Index: 58°   Visibility: 10mi
Dew Point: 36°   Wind: 10mph
Humidity: 44%   Direction: 10°N
Pressure: 30.04"   Gusts: NA
Location:  29.16°N, 95.43°W
Report Text: KLBX 242353Z AUTO 01009KT 10SM OVC120 14/02 A3004 RMK AO2 SLP171 T01440022 10183 20144 53014
Loading
Personal Weather Stations






























Interactive Weather Map New forecast layout! Learn more

10-Day Weather Forecast

Advertisements
Track Severe Weather on mobile